Time;durP1;ratioP1;P1;durP2;ratioP2;P2;SDS_P1;SDS_P2;PMS_P1;PMS_P2;Temp;Humidity;BMP_temperature;BMP_pressure;BME280_temperature;BME280_humidity;BME280_pressure;Samples;Min_cycle;Max_cycle;Signal;HPM_P1;HPM_P2
2021/12/11 00:00:12;;;;;;;15.70;13.53;;;3.80;99.90;;;;;;5014872;28;20173;-50
2021/12/11 00:02:38;;;;;;;16.60;13.97;;;3.80;99.90;;;;;;5015188;28;20196;-50
2021/12/11 00:05:05;;;;;;;14.90;13.30;;;3.70;99.90;;;;;;5014702;28;20242;-50
2021/12/11 00:07:31;;;;;;;16.93;14.00;;;3.70;99.90;;;;;;5015152;28;20612;-52
2021/12/11 00:10:08;;;;;;;16.50;14.10;;;3.80;99.90;;;;;;5014709;28;20168;-50
2021/12/11 00:12:40;;;;;;;16.10;14.13;;;3.90;99.90;;;;;;5015305;28;20526;-50
2021/12/11 00:15:15;;;;;;;15.87;13.53;;;3.90;99.90;;;;;;5014386;28;20196;-51
2021/12/11 00:17:41;;;;;;;16.20;14.13;;;3.90;99.90;;;;;;5014871;28;20203;-50
2021/12/11 00:20:18;;;;;;;17.43;14.97;;;4.00;99.90;;;;;;5014657;28;20169;-53
2021/12/11 00:22:44;;;;;;;16.97;14.77;;;4.00;99.90;;;;;;5014635;28;20561;-50
2021/12/11 00:25:11;;;;;;;15.77;13.67;;;4.10;99.90;;;;;;5014402;28;20207;-51
2021/12/11 00:27:41;;;;;;;16.67;14.67;;;4.10;99.90;;;;;;5054057;22;20232;-51
2021/12/11 00:30:10;;;;;;;17.40;14.47;;;4.10;99.90;;;;;;5014758;28;20664;-53
2021/12/11 00:32:37;;;;;;;16.10;14.27;;;4.10;99.90;;;;;;5014693;28;20765;-50
2021/12/11 00:35:13;;;;;;;18.00;14.57;;;4.10;99.90;;;;;;5014282;28;20585;-54
2021/12/11 00:37:39;;;;;;;17.87;14.87;;;4.10;99.90;;;;;;5014426;28;20192;-51
2021/12/11 00:40:10;;;;;;;17.27;14.93;;;4.10;99.90;;;;;;5014558;28;20188;-50
2021/12/11 00:42:37;;;;;;;18.03;15.10;;;4.10;99.90;;;;;;5014325;28;20164;-50
2021/12/11 00:45:14;;;;;;;17.23;15.40;;;4.20;99.90;;;;;;5014264;28;20634;-49
2021/12/11 00:47:56;;;;;;;16.10;14.40;;;4.20;99.90;;;;;;5014173;28;20196;-50
2021/12/11 00:50:26;;;;;;;17.97;15.13;;;4.30;99.90;;;;;;5014540;28;20593;-53
2021/12/11 00:52:56;;;;;;;17.23;15.10;;;4.30;99.90;;;;;;5014140;28;20335;-50
2021/12/11 00:55:28;;;;;;;17.57;14.87;;;4.30;99.90;;;;;;5013971;28;20224;-49
2021/12/11 00:58:07;;;;;;;18.53;15.23;;;4.30;99.90;;;;;;5014031;28;20188;-51
2021/12/11 01:00:44;;;;;;;17.30;15.07;;;4.10;99.90;;;;;;5014194;28;20164;-52
2021/12/11 01:03:13;;;;;;;18.13;15.63;;;4.00;99.90;;;;;;5014275;28;20608;-50
2021/12/11 01:05:44;;;;;;;17.80;15.90;;;4.10;99.90;;;;;;5013749;28;20184;-49
2021/12/11 01:08:22;;;;;;;18.17;15.70;;;4.10;99.90;;;;;;5014062;28;20669;-50
2021/12/11 01:10:51;;;;;;;16.97;14.97;;;4.10;99.90;;;;;;5013925;28;20176;-55
2021/12/11 01:13:22;;;;;;;16.27;14.53;;;4.20;99.90;;;;;;5013959;28;20596;-50
2021/12/11 01:15:56;;;;;;;16.77;14.97;;;4.10;99.90;;;;;;5013380;28;20210;-51
2021/12/11 01:18:34;;;;;;;16.97;14.97;;;4.00;99.90;;;;;;5013856;28;20691;-50
2021/12/11 01:24:38;;;;;;;18.40;14.73;;;3.90;99.90;;;;;;4990481;28;20231;-53
2021/12/11 01:27:04;;;;;;;20.60;17.90;;;3.90;99.90;;;;;;5013414;28;20202;-50
2021/12/11 01:29:32;;;;;;;18.40;16.23;;;3.80;99.90;;;;;;5013647;28;20700;-49
2021/12/11 01:31:59;;;;;;;16.63;14.77;;;3.80;99.90;;;;;;5013415;28;20168;-51
2021/12/11 01:34:26;;;;;;;20.27;17.90;;;3.90;99.90;;;;;;5013509;28;20165;-50
2021/12/11 01:36:53;;;;;;;19.07;16.50;;;3.80;99.90;;;;;;5012524;28;20590;-50
2021/12/11 01:39:24;;;;;;;18.50;15.47;;;3.90;99.90;;;;;;5013429;28;20181;-52
2021/12/11 01:41:52;;;;;;;20.50;18.27;;;4.00;99.90;;;;;;5013260;28;20168;-55
2021/12/11 01:44:27;;;;;;;18.67;16.07;;;4.00;99.90;;;;;;5013454;28;20637;-52
2021/12/11 01:47:15;;;;;;;17.70;15.63;;;4.00;99.90;;;;;;5012872;28;20176;-54
2021/12/11 01:49:44;;;;;;;18.87;16.83;;;3.90;99.90;;;;;;5013230;28;20172;-51
2021/12/11 01:52:15;;;;;;;19.20;16.83;;;3.80;99.90;;;;;;5012973;28;20179;-51
2021/12/11 01:54:45;;;;;;;20.40;18.10;;;3.80;99.90;;;;;;5012670;28;20227;-50
2021/12/11 01:57:17;;;;;;;18.70;16.50;;;3.70;99.90;;;;;;5012864;28;20197;-51
2021/12/11 01:59:46;;;;;;;17.43;15.33;;;3.70;99.90;;;;;;5013165;28;20164;-53
2021/12/11 02:02:19;;;;;;;19.90;17.57;;;3.80;99.90;;;;;;5013001;28;20172;-52
2021/12/11 02:04:48;;;;;;;18.77;16.13;;;3.70;99.90;;;;;;5012597;28;20184;-55
2021/12/11 02:07:19;;;;;;;20.07;17.27;;;3.70;99.90;;;;;;5012884;28;20189;-54
2021/12/11 02:09:54;;;;;;;19.97;17.47;;;3.70;99.90;;;;;;5012722;28;20179;-52
2021/12/11 02:12:35;;;;;;;22.03;18.67;;;3.50;99.90;;;;;;5012982;28;20588;-52
2021/12/11 02:15:04;;;;;;;20.33;17.47;;;3.40;99.90;;;;;;5012291;28;20204;-52
2021/12/11 02:18:01;;;;;;;18.63;16.20;;;3.40;99.90;;;;;;5012738;28;20185;-55
2021/12/11 02:20:37;;;;;;;21.10;17.33;;;3.50;99.90;;;;;;5012609;28;20745;-54
2021/12/11 02:23:04;;;;;;;18.57;16.57;;;3.50;99.90;;;;;;5012720;28;20179;-55
2021/12/11 02:25:33;;;;;;;18.60;16.10;;;3.60;99.90;;;;;;5012288;28;20176;-50
2021/12/11 02:28:05;;;;;;;20.30;17.10;;;3.80;99.90;;;;;;5012426;28;20220;-50
2021/12/11 02:30:43;;;;;;;24.60;19.47;;;3.80;99.90;;;;;;5012528;28;20206;-54
2021/12/11 02:33:23;;;;;;;21.13;16.80;;;3.90;99.90;;;;;;5012702;28;20184;-50
2021/12/11 02:36:07;;;;;;;18.80;16.40;;;4.00;99.90;;;;;;5011908;28;20307;-52
2021/12/11 02:38:54;;;;;;;20.67;17.43;;;4.00;99.90;;;;;;5012501;28;20870;-50
2021/12/11 02:41:53;;;;;;;22.33;16.53;;;4.10;99.90;;;;;;5012087;28;20259;-50
2021/12/11 02:45:00;;;;;;;19.83;17.00;;;4.10;99.90;;;;;;4960674;28;20191;-49
2021/12/11 02:47:34;;;;;;;19.67;16.20;;;4.20;99.90;;;;;;4951507;28;20225;-50
2021/12/11 02:50:23;;;;;;;21.93;17.73;;;4.20;99.90;;;;;;4951012;28;20177;-51
2021/12/11 02:53:03;;;;;;;20.60;16.63;;;4.20;99.90;;;;;;4951477;29;20182;-50
2021/12/11 02:55:43;;;;;;;20.20;16.37;;;4.30;99.90;;;;;;4935332;29;20619;-54
2021/12/11 02:58:18;;;;;;;19.17;16.93;;;4.30;99.90;;;;;;4951420;28;20229;-54
2021/12/11 03:00:55;;;;;;;21.67;18.13;;;4.30;99.90;;;;;;4951632;29;20277;-50
2021/12/11 03:03:33;;;;;;;21.97;17.63;;;4.20;99.90;;;;;;4951491;29;20770;-53
2021/12/11 03:06:19;;;;;;;20.30;16.70;;;4.20;99.90;;;;;;4951298;29;20383;-54
2021/12/11 03:08:45;;;;;;;20.83;16.53;;;4.20;99.90;;;;;;4951359;28;20202;-50
2021/12/11 03:11:15;;;;;;;19.00;16.90;;;4.20;99.90;;;;;;4951451;29;20190;-50
2021/12/11 03:13:44;;;;;;;19.83;16.83;;;4.10;99.90;;;;;;4951220;29;20193;-49
2021/12/11 03:16:10;;;;;;;20.73;17.47;;;4.10;99.90;;;;;;4951136;29;20206;-50
2021/12/11 03:18:36;;;;;;;20.33;17.27;;;4.00;99.90;;;;;;4993067;28;20211;-50
2021/12/11 03:21:03;;;;;;;17.70;15.80;;;3.80;99.90;;;;;;4994336;28;20268;-51
2021/12/11 03:23:29;;;;;;;17.67;15.70;;;3.70;99.90;;;;;;5011819;28;20176;-52
2021/12/11 03:25:55;;;;;;;19.90;17.00;;;3.70;99.90;;;;;;5011532;28;20266;-50
2021/12/11 03:28:22;;;;;;;17.90;15.73;;;3.70;99.90;;;;;;4993990;28;20618;-52
2021/12/11 03:30:56;;;;;;;19.07;17.00;;;3.60;99.90;;;;;;5011834;28;20216;-51
2021/12/11 03:33:23;;;;;;;18.03;16.13;;;3.70;99.90;;;;;;5011833;28;20180;-50
2021/12/11 03:35:48;;;;;;;18.07;16.17;;;3.80;99.90;;;;;;5011310;28;20239;-51
2021/12/11 03:38:16;;;;;;;17.80;15.67;;;3.90;99.90;;;;;;5011814;28;20526;-51
2021/12/11 03:40:41;;;;;;;17.77;15.60;;;4.00;99.90;;;;;;5011576;28;20283;-53
2021/12/11 03:43:11;;;;;;;17.03;15.20;;;4.10;99.90;;;;;;5011824;28;20207;-51
2021/12/11 03:45:39;;;;;;;16.97;15.03;;;4.10;99.90;;;;;;5011181;28;20169;-54
2021/12/11 03:48:13;;;;;;;17.53;15.17;;;4.20;99.90;;;;;;5011790;28;20200;-51
2021/12/11 03:50:40;;;;;;;16.73;14.93;;;4.20;99.90;;;;;;5011483;28;20172;-51
2021/12/11 03:53:06;;;;;;;16.30;14.30;;;4.30;99.90;;;;;;5011702;28;20318;-51
2021/12/11 03:55:37;;;;;;;17.07;15.27;;;4.30;99.90;;;;;;5011260;28;20212;-50
2021/12/11 03:58:08;;;;;;;16.90;15.10;;;4.30;99.90;;;;;;4993980;28;20207;-50
2021/12/11 04:00:42;;;;;;;17.23;15.27;;;4.30;99.90;;;;;;5012654;28;20172;-53
2021/12/11 04:03:12;;;;;;;18.20;15.63;;;4.20;99.90;;;;;;5015369;28;20541;-51
2021/12/11 04:05:41;;;;;;;17.13;15.33;;;4.20;99.90;;;;;;5014886;28;20187;-51
2021/12/11 04:08:12;;;;;;;17.70;14.83;;;4.20;99.90;;;;;;5015015;28;20271;-50
2021/12/11 04:10:37;;;;;;;16.00;14.30;;;4.30;99.90;;;;;;5015137;28;20177;-50
2021/12/11 04:13:07;;;;;;;17.67;14.03;;;4.40;99.90;;;;;;5015023;28;20177;-53
2021/12/11 04:15:34;;;;;;;16.83;14.10;;;4.40;99.90;;;;;;5014787;28;20200;-52
2021/12/11 04:18:00;;;;;;;15.73;13.83;;;4.40;99.90;;;;;;5014711;28;20200;-50
2021/12/11 04:20:27;;;;;;;16.30;14.10;;;4.30;99.90;;;;;;5014926;28;20200;-54
2021/12/11 04:22:54;;;;;;;16.43;14.10;;;4.20;99.90;;;;;;5014791;28;20230;-50
2021/12/11 04:25:24;;;;;;;15.70;13.60;;;4.30;99.90;;;;;;5014753;28;20191;-50
2021/12/11 04:27:49;;;;;;;15.67;13.23;;;4.30;99.90;;;;;;5014444;28;20216;-50
2021/12/11 04:30:21;;;;;;;15.93;14.13;;;4.40;99.90;;;;;;5014805;28;20238;-54
2021/12/11 04:32:48;;;;;;;16.03;14.33;;;4.40;99.90;;;;;;5014660;28;20189;-53
2021/12/11 04:35:15;;;;;;;15.53;13.93;;;4.30;99.90;;;;;;5014265;28;20234;-50
2021/12/11 04:37:41;;;;;;;15.50;13.63;;;4.20;99.90;;;;;;5014689;28;20291;-49
2021/12/11 04:40:30;;;;;;;15.63;13.97;;;4.00;99.90;;;;;;5014437;28;20267;-55
2021/12/11 04:43:07;;;;;;;15.80;14.10;;;3.90;99.90;;;;;;5014609;28;20560;-54
2021/12/11 04:45:41;;;;;;;15.73;14.07;;;3.80;99.90;;;;;;5014087;28;20178;-50
2021/12/11 04:48:52;;;;;;;16.47;14.70;;;3.70;99.90;;;;;;5014445;28;20196;-53
2021/12/11 04:51:34;;;;;;;16.47;14.70;;;3.80;99.90;;;;;;5014249;28;20207;-53
2021/12/11 05:07:26;;;;;;;15.20;13.57;;;4.00;99.90;;;;;;5014073;28;20200;-53
2021/12/11 05:10:33;;;;;;;16.13;13.40;;;3.90;99.90;;;;;;5014077;28;20172;-52
2021/12/11 05:12:54;;;;;;;13.57;12.10;;;3.90;99.90;;;;;;5012498;28;20196;-53
2021/12/11 05:15:24;;;;;;;17.73;13.27;;;3.80;99.90;;;;;;5013517;28;20204;-50
2021/12/11 05:17:50;;;;;;;15.83;13.50;;;3.80;99.90;;;;;;5013711;28;20234;-49
2021/12/11 05:20:19;;;;;;;13.00;11.63;;;3.70;99.90;;;;;;5013895;28;20180;-49
2021/12/11 05:22:45;;;;;;;15.70;14.10;;;3.70;99.90;;;;;;5013831;28;20177;-51
2021/12/11 05:25:12;;;;;;;16.47;13.60;;;3.70;99.90;;;;;;5013648;28;20588;-50
2021/12/11 05:27:39;;;;;;;14.23;12.13;;;3.70;99.90;;;;;;5013533;28;20216;-50
2021/12/11 05:30:08;;;;;;;13.57;11.50;;;3.80;99.90;;;;;;5013695;28;20228;-53
2021/12/11 05:32:34;;;;;;;15.43;13.83;;;3.80;99.90;;;;;;5013397;28;20279;-53
2021/12/11 05:35:00;;;;;;;14.63;12.20;;;3.80;99.90;;;;;;5013262;28;20280;-50
2021/12/11 05:37:26;;;;;;;15.13;13.13;;;3.80;99.90;;;;;;5013236;28;20267;-53
2021/12/11 05:39:52;;;;;;;13.87;11.97;;;3.70;99.90;;;;;;5013453;28;20177;-53
2021/12/11 05:42:18;;;;;;;17.10;12.77;;;3.70;99.90;;;;;;5012670;28;20230;-51
2021/12/11 05:44:44;;;;;;;12.43;11.13;;;3.70;99.90;;;;;;5013020;28;20259;-50
2021/12/11 05:47:10;;;;;;;12.80;11.40;;;3.60;99.90;;;;;;5013343;28;20274;-51
2021/12/11 05:49:37;;;;;;;16.93;13.93;;;3.60;99.90;;;;;;5012717;28;20181;-49
2021/12/11 05:52:06;;;;;;;13.90;12.50;;;3.60;99.90;;;;;;5013337;28;20736;-51
2021/12/11 05:54:33;;;;;;;16.93;12.93;;;3.70;99.90;;;;;;5012633;28;20184;-51
2021/12/11 05:57:03;;;;;;;13.03;11.57;;;3.80;99.90;;;;;;5012987;28;20200;-50
2021/12/11 05:59:30;;;;;;;12.13;10.83;;;3.80;99.90;;;;;;5013026;28;20458;-53
2021/12/11 06:02:10;;;;;;;14.20;12.10;;;3.80;99.90;;;;;;5013100;28;20165;-53
2021/12/11 06:04:39;;;;;;;10.20;8.93;;;3.90;99.90;;;;;;5012764;28;20273;-47
2021/12/11 06:07:09;;;;;;;10.17;8.27;;;3.90;99.90;;;;;;5013045;28;20758;-51
2021/12/11 06:09:37;;;;;;;13.20;10.37;;;3.80;99.90;;;;;;5012732;28;20168;-53
2021/12/11 06:12:07;;;;;;;10.83;8.67;;;3.70;99.90;;;;;;5013030;28;20200;-51
2021/12/11 06:14:34;;;;;;;10.00;8.20;;;3.70;99.90;;;;;;5012708;28;20168;-50
2021/12/11 06:17:02;;;;;;;11.73;9.17;;;3.50;99.90;;;;;;5012425;28;20185;-50
2021/12/11 06:19:28;;;;;;;10.73;9.03;;;3.40;99.90;;;;;;5012785;28;20176;-53
2021/12/11 06:21:55;;;;;;;8.80;7.60;;;3.40;99.90;;;;;;5012657;28;20215;-52
2021/12/11 06:24:23;;;;;;;8.90;8.00;;;3.40;99.90;;;;;;5012613;28;20177;-50
2021/12/11 06:26:49;;;;;;;9.57;8.30;;;3.40;99.90;;;;;;5012102;28;20176;-54
2021/12/11 06:29:15;;;;;;;8.80;7.90;;;3.40;99.90;;;;;;5053789;22;20600;-53
2021/12/11 06:31:43;;;;;;;10.60;9.20;;;3.40;99.90;;;;;;5031868;28;20733;-48
2021/12/11 06:34:10;;;;;;;11.50;9.63;;;3.40;99.90;;;;;;5032328;28;20163;-49
2021/12/11 06:36:36;;;;;;;10.93;9.83;;;3.50;99.90;;;;;;5031738;28;20711;-48
2021/12/11 06:39:07;;;;;;;13.90;9.53;;;3.60;99.90;;;;;;5032071;28;20187;-48
2021/12/11 06:41:37;;;;;;;11.37;9.23;;;3.70;99.90;;;;;;5032121;28;20254;-48
2021/12/11 06:44:04;;;;;;;13.47;12.00;;;3.70;99.90;;;;;;5032007;28;20194;-48
2021/12/11 06:46:31;;;;;;;11.30;8.90;;;3.70;99.90;;;;;;5031773;28;20175;-50
2021/12/11 06:48:57;;;;;;;11.17;9.17;;;3.70;99.90;;;;;;5031778;28;20226;-54
2021/12/11 06:51:23;;;;;;;10.27;8.63;;;3.70;99.90;;;;;;5032061;28;20193;-48
2021/12/11 06:53:55;;;;;;;14.20;9.43;;;3.70;99.90;;;;;;5031927;28;20203;-48
2021/12/11 06:56:22;;;;;;;9.40;8.30;;;3.70;99.90;;;;;;5031656;28;20658;-48
2021/12/11 06:58:51;;;;;;;9.83;8.80;;;3.70;99.90;;;;;;5031626;28;20192;-48
2021/12/11 07:01:18;;;;;;;10.20;7.83;;;3.70;99.90;;;;;;5031834;28;20578;-51
2021/12/11 07:03:44;;;;;;;8.90;8.00;;;3.60;99.90;;;;;;5031760;28;20632;-49
2021/12/11 07:06:11;;;;;;;10.47;7.77;;;3.60;99.90;;;;;;5031609;28;20172;-48
2021/12/11 07:08:39;;;;;;;10.50;8.03;;;3.60;99.90;;;;;;5031596;28;20567;-50
2021/12/11 07:11:07;;;;;;;8.60;7.70;;;3.50;99.90;;;;;;5031630;28;20545;-48
2021/12/11 07:13:32;;;;;;;8.67;7.43;;;3.50;99.90;;;;;;5031775;28;20270;-48
2021/12/11 07:15:59;;;;;;;8.23;7.40;;;3.60;99.90;;;;;;5013413;28;20598;-51
2021/12/11 07:18:27;;;;;;;9.60;7.93;;;3.70;99.90;;;;;;5031674;28;20196;-49
2021/12/11 07:20:54;;;;;;;8.43;7.53;;;3.60;99.90;;;;;;5030318;28;20170;-47
2021/12/11 07:23:20;;;;;;;8.83;7.93;;;3.60;99.90;;;;;;5035678;28;20176;-45
2021/12/11 07:25:59;;;;;;;9.93;8.53;;;3.70;99.90;;;;;;5030339;28;20355;-47
2021/12/11 07:28:25;;;;;;;9.37;7.43;;;3.80;99.90;;;;;;5023785;28;20226;-51
2021/12/11 07:30:55;;;;;;;8.67;7.43;;;3.80;99.90;;;;;;5026507;28;20186;-49
2021/12/11 07:33:21;;;;;;;10.93;8.13;;;3.90;99.90;;;;;;5038287;28;20638;-47
2021/12/11 07:35:48;;;;;;;6.97;6.23;;;3.90;99.90;;;;;;5048142;28;20202;-47
2021/12/11 07:38:14;;;;;;;7.70;6.50;;;4.10;99.90;;;;;;5046499;28;20196;-50
2021/12/11 07:40:51;;;;;;;8.17;6.80;;;4.00;99.90;;;;;;5035133;28;20246;-46
2021/12/11 07:43:17;;;;;;;9.50;6.50;;;3.90;99.90;;;;;;5034869;28;20603;-49
2021/12/11 07:45:44;;;;;;;8.40;6.70;;;3.90;99.90;;;;;;5038564;28;20179;-48
2021/12/11 07:48:10;;;;;;;7.70;6.90;;;3.80;99.90;;;;;;5054489;28;20229;-49
2021/12/11 07:50:37;;;;;;;8.97;6.83;;;3.60;99.90;;;;;;5054783;28;20589;-51
2021/12/11 07:53:03;;;;;;;10.20;7.13;;;3.40;99.90;;;;;;5054905;28;20253;-49
2021/12/11 07:55:30;;;;;;;7.33;6.53;;;3.30;99.90;;;;;;5054090;28;20752;-52
2021/12/11 07:57:56;;;;;;;6.80;5.80;;;3.20;99.90;;;;;;5054885;28;20191;-49
2021/12/11 08:00:25;;;;;;;8.37;6.60;;;3.10;99.90;;;;;;5054196;28;20171;-55
2021/12/11 08:02:51;;;;;;;7.93;6.00;;;3.00;99.90;;;;;;5054760;28;20268;-50
2021/12/11 08:05:17;;;;;;;9.30;6.37;;;2.80;99.90;;;;;;5036260;28;20178;-51
2021/12/11 08:07:43;;;;;;;8.30;6.37;;;2.70;99.90;;;;;;5036613;28;20211;-48
2021/12/11 08:10:13;;;;;;;8.37;5.90;;;2.70;99.90;;;;;;5049989;28;20240;-48
2021/12/11 08:12:40;;;;;;;9.00;6.10;;;2.70;99.90;;;;;;5041448;28;20251;-49
2021/12/11 08:15:07;;;;;;;8.17;6.57;;;2.80;99.90;;;;;;5038316;28;20329;-51
2021/12/11 08:17:33;;;;;;;7.20;6.10;;;2.80;99.90;;;;;;5053820;28;20218;-48
2021/12/11 08:19:59;;;;;;;6.87;5.97;;;2.80;99.90;;;;;;5054211;28;20206;-48
2021/12/11 08:22:25;;;;;;;7.83;6.20;;;2.80;99.90;;;;;;5038080;28;20179;-50
2021/12/11 08:24:50;;;;;;;6.47;5.63;;;2.80;99.90;;;;;;5033887;28;20582;-48
2021/12/11 08:27:21;;;;;;;7.00;6.20;;;2.80;99.90;;;;;;5034419;28;20176;-52
2021/12/11 08:29:49;;;;;;;7.47;5.60;;;2.90;99.90;;;;;;5033514;28;20202;-46
2021/12/11 08:32:16;;;;;;;7.50;5.60;;;2.90;99.90;;;;;;5045962;28;20683;-51
2021/12/11 08:34:42;;;;;;;5.73;5.13;;;2.90;99.90;;;;;;5033024;28;20202;-46
2021/12/11 08:37:13;;;;;;;8.07;5.60;;;2.90;99.90;;;;;;5033858;28;20180;-49
2021/12/11 08:39:40;;;;;;;6.37;5.60;;;2.90;99.90;;;;;;5034213;28;20176;-46
2021/12/11 08:42:08;;;;;;;7.00;5.33;;;2.90;99.90;;;;;;5033857;28;20172;-53
2021/12/11 08:44:38;;;;;;;5.97;5.37;;;2.90;99.90;;;;;;5034088;28;20548;-54
2021/12/11 08:47:08;;;;;;;6.97;5.90;;;2.90;99.90;;;;;;5032535;28;20583;-48
2021/12/11 08:49:36;;;;;;;6.50;5.50;;;2.90;99.90;;;;;;5034176;28;20234;-48
2021/12/11 08:52:09;;;;;;;6.50;4.73;;;3.10;99.90;;;;;;5033879;28;20618;-48
2021/12/11 08:54:36;;;;;;;6.07;5.33;;;3.10;99.90;;;;;;5033981;28;20164;-53
2021/12/11 08:57:08;;;;;;;8.03;5.07;;;3.20;99.90;;;;;;5033678;28;20179;-51
2021/12/11 08:59:36;;;;;;;8.43;5.40;;;3.20;99.90;;;;;;5033781;28;20563;-47
2021/12/11 09:02:16;;;;;;;5.73;5.00;;;3.10;99.90;;;;;;5033877;28;20180;-51
2021/12/11 09:04:55;;;;;;;10.07;5.30;;;3.00;99.90;;;;;;5033699;28;20172;-52
2021/12/11 09:07:37;;;;;;;6.00;5.00;;;3.00;99.90;;;;;;5033824;28;20221;-48
2021/12/11 09:10:47;;;;;;;5.87;4.90;;;3.10;99.90;;;;;;5033610;28;20176;-48
2021/12/11 09:13:25;;;;;;;10.27;6.47;;;3.10;99.90;;;;;;5029460;28;20176;-49
2021/12/11 09:16:00;;;;;;;6.23;4.93;;;3.10;99.90;;;;;;5032796;28;20195;-50
2021/12/11 09:18:40;;;;;;;7.70;5.77;;;3.10;99.90;;;;;;5033574;28;20195;-48
2021/12/11 09:21:34;;;;;;;6.80;5.10;;;3.00;99.90;;;;;;5032312;28;20164;-47
2021/12/11 09:24:12;;;;;;;5.53;4.73;;;2.90;99.90;;;;;;5033523;28;20424;-49
2021/12/11 09:26:49;;;;;;;8.63;5.90;;;3.00;99.90;;;;;;5032812;28;20183;-47
2021/12/11 09:29:32;;;;;;;5.63;5.03;;;3.10;99.90;;;;;;5032979;28;20203;-52
2021/12/11 09:32:25;;;;;;;5.43;4.80;;;3.30;99.90;;;;;;5033222;28;20605;-49
2021/12/11 09:35:36;;;;;;;6.00;4.73;;;3.40;99.90;;;;;;5032972;28;20196;-47
2021/12/11 09:38:27;;;;;;;5.80;5.20;;;3.50;99.90;;;;;;4933572;29;20209;-48
2021/12/11 09:40:55;;;;;;;7.67;5.60;;;3.50;99.90;;;;;;4926982;29;20210;-47
2021/12/11 09:43:39;;;;;;;5.80;5.20;;;3.40;99.90;;;;;;4933449;29;20214;-47
2021/12/11 09:46:08;;;;;;;8.57;6.63;;;3.20;99.90;;;;;;4933372;29;20182;-46
2021/12/11 09:48:34;;;;;;;8.90;6.73;;;3.10;99.90;;;;;;4933127;29;20207;-49
2021/12/11 09:51:08;;;;;;;6.80;6.10;;;3.10;99.90;;;;;;4933298;29;20189;-48
2021/12/11 09:53:38;;;;;;;7.20;5.60;;;3.10;99.90;;;;;;4933168;29;20709;-48
2021/12/11 09:56:08;;;;;;;6.30;5.23;;;3.20;99.90;;;;;;4933104;29;20215;-50
2021/12/11 09:58:36;;;;;;;6.83;5.37;;;3.30;99.90;;;;;;4932587;29;20620;-49
2021/12/11 10:01:13;;;;;;;6.87;5.40;;;3.40;99.90;;;;;;4917518;29;20179;-49
2021/12/11 10:03:47;;;;;;;5.97;5.37;;;3.50;99.90;;;;;;4932974;29;20664;-51
2021/12/11 10:06:37;;;;;;;7.57;5.67;;;3.50;99.90;;;;;;4932691;29;20183;-54
2021/12/11 10:09:18;;;;;;;6.40;5.43;;;3.50;99.90;;;;;;4939414;28;20929;-52
2021/12/11 10:12:09;;;;;;;6.93;5.97;;;3.30;99.90;;;;;;4948203;29;20667;-51
2021/12/11 10:14:40;;;;;;;6.27;5.47;;;3.30;99.90;;;;;;4979945;28;20192;-51
2021/12/11 10:17:12;;;;;;;7.80;5.80;;;3.30;99.90;;;;;;5012634;28;20168;-48
2021/12/11 10:19:39;;;;;;;8.97;6.37;;;3.30;99.90;;;;;;5012464;28;20176;-50
2021/12/11 10:22:13;;;;;;;6.53;5.50;;;3.30;99.90;;;;;;5012333;28;20638;-53
2021/12/11 10:24:40;;;;;;;6.43;5.60;;;3.30;99.90;;;;;;5018114;28;20172;-53
2021/12/11 10:27:10;;;;;;;8.77;6.10;;;3.30;99.90;;;;;;5031477;28;20649;-48
2021/12/11 10:29:36;;;;;;;6.23;5.63;;;3.40;99.90;;;;;;5031774;28;20211;-48
2021/12/11 10:32:06;;;;;;;6.97;5.80;;;3.30;99.90;;;;;;5031688;28;20246;-48
2021/12/11 10:34:34;;;;;;;6.43;5.57;;;3.30;99.90;;;;;;5032035;28;20529;-47
2021/12/11 10:37:14;;;;;;;6.80;5.97;;;3.40;99.90;;;;;;5013016;28;20580;-48
2021/12/11 10:39:50;;;;;;;6.20;5.60;;;3.50;99.90;;;;;;5032186;28;20286;-48
2021/12/11 10:42:16;;;;;;;7.23;6.03;;;3.60;99.90;;;;;;5031716;28;20588;-51
2021/12/11 10:44:47;;;;;;;6.70;6.00;;;3.80;99.90;;;;;;5031722;28;20184;-49
2021/12/11 10:47:19;;;;;;;6.43;5.60;;;3.90;99.90;;;;;;5031969;28;20218;-48
2021/12/11 10:49:48;;;;;;;6.47;5.80;;;3.90;99.90;;;;;;5031786;28;20211;-50
2021/12/11 10:52:19;;;;;;;7.33;6.30;;;3.80;99.90;;;;;;5032084;28;20167;-52
2021/12/11 10:54:47;;;;;;;7.17;6.47;;;3.70;99.90;;;;;;5031338;28;20172;-51
2021/12/11 10:57:15;;;;;;;7.53;5.93;;;3.60;99.90;;;;;;5031942;28;20175;-50
2021/12/11 10:59:46;;;;;;;7.90;6.33;;;3.40;99.90;;;;;;5031608;28;20210;-50
2021/12/11 11:02:16;;;;;;;7.43;6.70;;;3.40;99.90;;;;;;5031923;28;20186;-52
2021/12/11 11:04:51;;;;;;;7.20;6.17;;;3.40;99.90;;;;;;5031290;28;20227;-49
2021/12/11 11:07:17;;;;;;;7.40;6.40;;;3.30;99.90;;;;;;5031857;28;20175;-53
2021/12/11 11:09:43;;;;;;;7.67;6.67;;;3.30;99.90;;;;;;5030791;28;20172;-49
2021/12/11 11:12:15;;;;;;;7.20;6.50;;;3.40;99.90;;;;;;5031829;28;20176;-48
2021/12/11 11:14:41;;;;;;;6.87;6.17;;;3.40;99.90;;;;;;5031323;28;20545;-48
2021/12/11 11:17:13;;;;;;;6.13;5.53;;;3.60;99.90;;;;;;5031560;28;20208;-48
2021/12/11 11:19:41;;;;;;;7.57;6.87;;;3.60;99.90;;;;;;5031713;28;20172;-48
2021/12/11 11:22:11;;;;;;;6.63;5.93;;;3.50;99.90;;;;;;5031462;28;20172;-49
2021/12/11 11:24:42;;;;;;;7.43;6.73;;;3.40;99.90;;;;;;5031504;28;20168;-50
2021/12/11 11:27:08;;;;;;;6.50;5.83;;;3.50;99.90;;;;;;5013675;28;20176;-49
2021/12/11 11:29:35;;;;;;;7.00;6.30;;;3.50;99.90;;;;;;5031302;28;20580;-49
2021/12/11 11:32:07;;;;;;;7.33;6.27;;;3.70;99.90;;;;;;5031351;28;20170;-51
2021/12/11 11:34:39;;;;;;;6.60;6.00;;;3.60;99.90;;;;;;5031455;28;20179;-47
2021/12/11 11:37:07;;;;;;;6.77;6.07;;;3.30;99.90;;;;;;5029586;28;20617;-49
2021/12/11 11:39:33;;;;;;;6.87;6.10;;;3.10;99.90;;;;;;5031253;28;20599;-43
2021/12/11 11:42:01;;;;;;;8.17;7.37;;;3.20;99.90;;;;;;5031183;28;20172;-49
2021/12/11 11:44:30;;;;;;;7.70;6.47;;;3.20;99.90;;;;;;5031143;28;20168;-47
2021/12/11 11:46:59;;;;;;;6.77;6.03;;;3.20;99.90;;;;;;5030945;28;20191;-49
2021/12/11 11:49:25;;;;;;;9.47;7.13;;;3.20;99.90;;;;;;5030188;28;20214;-49
2021/12/11 11:51:58;;;;;;;7.30;6.60;;;3.20;99.90;;;;;;5031210;28;20692;-51
2021/12/11 11:54:26;;;;;;;6.97;6.27;;;3.10;99.90;;;;;;5030942;28;20205;-51
2021/12/11 11:57:04;;;;;;;7.70;6.90;;;3.10;99.90;;;;;;5030492;28;20200;-48
2021/12/11 11:59:29;;;;;;;6.40;5.80;;;3.10;99.90;;;;;;5030954;28;20673;-48
2021/12/11 12:02:01;;;;;;;7.27;6.57;;;3.00;99.90;;;;;;5031316;28;20202;-49
2021/12/11 12:04:29;;;;;;;6.77;6.07;;;3.10;99.90;;;;;;5031081;28;20195;-49
2021/12/11 12:06:59;;;;;;;7.80;6.70;;;3.10;99.90;;;;;;5030783;28;20164;-48
2021/12/11 12:09:26;;;;;;;7.80;7.00;;;3.20;99.90;;;;;;5031055;28;20192;-50
2021/12/11 12:11:53;;;;;;;7.40;6.27;;;3.20;99.90;;;;;;5030884;28;20168;-51
2021/12/11 12:14:23;;;;;;;7.10;6.40;;;3.10;99.90;;;;;;5031094;28;20172;-49
2021/12/11 12:16:50;;;;;;;8.50;6.90;;;3.00;99.90;;;;;;5030420;28;20254;-48
2021/12/11 12:19:17;;;;;;;7.57;6.80;;;2.90;99.90;;;;;;5030896;28;20194;-55
2021/12/11 12:21:47;;;;;;;8.17;7.20;;;2.90;99.90;;;;;;5032135;28;20214;-54
2021/12/11 12:24:13;;;;;;;8.63;7.03;;;2.90;99.90;;;;;;5034345;28;20172;-54
2021/12/11 12:26:39;;;;;;;8.00;7.20;;;2.80;99.90;;;;;;4985260;28;20569;-52
2021/12/11 12:29:07;;;;;;;8.93;8.03;;;2.80;99.90;;;;;;5035233;28;20293;-51
2021/12/11 12:31:38;;;;;;;7.83;7.03;;;2.70;99.90;;;;;;5036241;28;20245;-55
2021/12/11 12:34:04;;;;;;;8.60;7.70;;;2.80;99.90;;;;;;5034207;28;20172;-49
2021/12/11 12:36:31;;;;;;;8.13;7.10;;;2.70;99.90;;;;;;5033920;28;20207;-53
2021/12/11 12:38:57;;;;;;;8.73;7.83;;;2.80;99.90;;;;;;5033842;28;20184;-50
2021/12/11 12:41:35;;;;;;;8.43;7.57;;;2.70;99.90;;;;;;5034210;28;20175;-52
2021/12/11 12:47:12;;;;;;;8.37;7.43;;;2.60;99.90;;;;;;5038329;28;20202;-48
2021/12/11 12:49:42;;;;;;;9.13;8.13;;;2.60;99.90;;;;;;5042706;28;20183;-50
2021/12/11 12:52:16;;;;;;;9.00;7.90;;;2.60;99.90;;;;;;5033753;28;20207;-48
2021/12/11 12:54:42;;;;;;;8.13;7.30;;;2.70;99.90;;;;;;5033329;28;20258;-48
2021/12/11 12:57:19;;;;;;;8.60;7.60;;;2.80;99.90;;;;;;5040273;28;20784;-46
2021/12/11 12:59:58;;;;;;;8.20;7.30;;;2.80;99.90;;;;;;5037935;28;20241;-45
2021/12/11 13:02:26;;;;;;;9.60;7.83;;;2.70;99.90;;;;;;5032799;28;20179;-47
2021/12/11 13:04:56;;;;;;;8.30;7.37;;;2.80;99.90;;;;;;5032387;28;20195;-50
2021/12/11 13:07:22;;;;;;;8.37;7.37;;;2.90;99.90;;;;;;5032656;28;20176;-51
2021/12/11 13:09:58;;;;;;;9.17;8.10;;;2.80;99.90;;;;;;5032551;28;20164;-48
2021/12/11 13:12:32;;;;;;;8.37;7.47;;;2.80;99.90;;;;;;5033903;28;20167;-49
2021/12/11 13:15:07;;;;;;;9.43;7.90;;;2.70;99.90;;;;;;5033451;28;20703;-51
2021/12/11 13:17:37;;;;;;;8.97;8.07;;;2.60;99.90;;;;;;5033789;28;20195;-51
2021/12/11 13:20:21;;;;;;;8.97;7.93;;;2.50;99.90;;;;;;5033706;28;20177;-48
2021/12/11 13:22:48;;;;;;;8.53;7.70;;;2.50;99.90;;;;;;5033521;28;20647;-49
2021/12/11 13:25:22;;;;;;;9.57;8.57;;;2.40;99.90;;;;;;5033368;28;20183;-49
2021/12/11 13:27:51;;;;;;;9.77;8.77;;;2.30;99.90;;;;;;5033141;28;20207;-48